Terminal Aerodrome Forecast
Issued by NWS

Home | Current Version | Previous Version | Text Only | Print | Product List | Glossary On
Versions: 1 2 3 4 5 6 7 8 9 10 11 12 13 14 15 16 17 18
000
FTUS43 KMQT 261700
TAFIWD
TAF
KIWD 261738Z 2618/2718 27005KT 3SM -SN OVC030
      TEMPO 2618/2621 1 1/2SM -SN OVC018
     FM262100 35008KT 1SM -SHSN OVC010
      TEMPO 2621/2623 1/2SM SHSN OVC007
     FM262300 35010KT 3/4SM -SHSN OVC007
     FM270500 33008KT 1SM -SHSN OVC012
     FM271500 31007KT 3SM -SHSN OVC020
      AMD LTD TO CLD VIS AND WIND=

USA.gov is the U.S. government's official web portal to all federal, state and local government web resources and services.